New Rumley, Ohio
Current Conditions -  °F | °C
As of 3:53 PM on Wednesday 17 Dec 2014 (Local Time) from KPHD Reporting Station
Overcast Overcast  
Wind Chill: 24°   Ceiling: 2400
Heat Index: 32°   Visibility: 10mi
Dew Point: 23°   Wind: 9mph
Humidity: 69%   Direction: 260°W
Pressure: 30.13"   Gusts: 22mph
Location:  40.4°N, 81.03°W
Report Text: KPHD 172053Z AUTO 26008G19KT 10SM OVC024 00/M05 A3013 RMK AO2 SLP209 T00001050 53004
Loading
Personal Weather Stations






























Interactive Weather Map New forecast layout! Learn more

10-Day Weather Forecast

Advertisements
Track Severe Weather on mobile